Aviation Digital Data Service (ADDS)

Output produced by METARs form (1211 UTC 24 February 2018)
found at http://aviationweather.gov/adds/metars/
 
Forecast for: WADL (BANDARA , ID)
Text: TAF WADL 241100Z 2412/2512 28004KT 8000 SCT016
Forecast period: 1200 UTC 24 February 2018 to 1200 UTC 25 February 2018
Forecast type: FROM: standard forecast or significant change
Winds: from the W (280 degrees) at 5 MPH (4 knots; 2.1 m/s)
Visibility: 5 miles (8 km)
Clouds: scattered clouds at 1600 feet AGL
Weather: no significant weather forecast for this period
Text: TEMPO 2506/2510 3000 -TSRA FEW015CB
Forecast period: 0600 to 1000 UTC 25 February 2018
Forecast type: TEMPORARY: The following changes expected for less than half the time period
Visibility: 1.86 miles (2.99 km)
Clouds: few clouds at 1500 feet AGL
Weather: -TSRA  (light rain associated with thunderstorm(s))